createdAt,value
2022-11-25T00:01:07.756Z,5.07
2022-11-25T00:03:36.380Z,5.13
2022-11-25T00:06:14.908Z,4.30
2022-11-25T00:08:45.313Z,7.28
2022-11-25T00:11:14.410Z,4.15
2022-11-25T00:13:43.273Z,5.25
2022-11-25T00:16:12.435Z,4.13
2022-11-25T00:18:41.136Z,4.32
2022-11-25T00:21:10.712Z,3.60
2022-11-25T00:23:39.024Z,5.00
2022-11-25T00:26:09.520Z,4.63
2022-11-25T00:28:37.279Z,5.65
2022-11-25T00:31:06.682Z,4.78
2022-11-25T00:33:34.391Z,5.13
2022-11-25T00:36:03.193Z,4.07
2022-11-25T00:38:31.028Z,5.00
2022-11-25T00:41:12.675Z,3.55
2022-11-25T00:43:59.034Z,3.70
2022-11-25T00:46:26.700Z,5.45
2022-11-25T00:48:54.341Z,5.35
2022-11-25T00:51:21.987Z,7.65
2022-11-25T00:53:53.416Z,4.50
2022-11-25T00:56:23.631Z,4.35
2022-11-25T00:58:54.371Z,9.70
2022-11-25T01:01:22.276Z,3.83
2022-11-25T01:03:50.704Z,4.00
2022-11-25T01:06:18.783Z,7.38
2022-11-25T01:08:46.818Z,3.92
2022-11-25T01:11:17.047Z,7.82
2022-11-25T01:13:44.737Z,4.88
2022-11-25T01:16:16.392Z,3.97
2022-11-25T01:18:44.707Z,6.70
2022-11-25T01:21:14.797Z,4.07
2022-11-25T01:23:43.387Z,3.83
2022-11-25T01:26:13.626Z,6.38
2022-11-25T01:28:41.355Z,3.13
2022-11-25T01:31:11.163Z,3.67
2022-11-25T01:33:40.259Z,5.07
2022-11-25T01:36:10.772Z,5.30
2022-11-25T01:38:38.570Z,3.53
2022-11-25T01:41:07.555Z,4.85
2022-11-25T01:43:35.571Z,3.88
2022-11-25T01:46:08.955Z,4.20
2022-11-25T01:48:44.084Z,4.22
2022-11-25T01:51:22.780Z,4.45
2022-11-25T01:53:51.456Z,3.75
2022-11-25T01:56:20.171Z,4.20
2022-11-25T01:58:50.512Z,5.88
2022-11-25T02:01:18.848Z,5.43
2022-11-25T02:03:50.240Z,5.38
2022-11-25T02:06:23.769Z,3.05
2022-11-25T02:08:54.481Z,5.65
2022-11-25T02:11:24.025Z,4.00
2022-11-25T02:13:52.767Z,3.42
2022-11-25T02:16:20.492Z,3.15
2022-11-25T02:18:50.764Z,5.13
2022-11-25T02:21:23.379Z,3.35
2022-11-25T02:23:58.256Z,2.50
2022-11-25T02:26:27.327Z,5.30
2022-11-25T02:28:55.379Z,3.83
2022-11-25T02:31:24.007Z,2.83
2022-11-25T02:33:51.955Z,4.07
2022-11-25T02:36:22.031Z,4.05
2022-11-25T02:38:53.980Z,2.97
2022-11-25T02:41:26.478Z,2.33
2022-11-25T02:43:56.048Z,2.88
2022-11-25T02:46:26.423Z,4.47
2022-11-25T02:49:10.980Z,2.40
2022-11-25T02:51:40.664Z,3.97
2022-11-25T02:54:09.279Z,4.75
2022-11-25T02:56:37.861Z,2.30
2022-11-25T02:59:07.887Z,7.03
2022-11-25T03:01:36.429Z,4.18
2022-11-25T03:04:04.361Z,2.60
2022-11-25T03:06:32.607Z,2.47
2022-11-25T03:09:00.398Z,2.63
2022-11-25T03:11:42.306Z,1.80
2022-11-25T03:14:11.479Z,4.15
2022-11-25T03:16:39.233Z,3.35
2022-11-25T03:19:08.446Z,3.20
2022-11-25T03:21:36.160Z,2.28
2022-11-25T03:24:03.936Z,1.90
2022-11-25T03:26:31.727Z,2.50
2022-11-25T03:28:59.415Z,2.95
2022-11-25T03:31:28.477Z,4.28
2022-11-25T03:33:57.033Z,2.47
2022-11-25T03:36:24.679Z,6.93
2022-11-25T03:38:52.343Z,2.92
2022-11-25T03:41:20.058Z,2.83
2022-11-25T03:43:48.957Z,2.90
2022-11-25T03:46:16.874Z,2.05
2022-11-25T03:48:45.992Z,5.10
2022-11-25T03:51:13.652Z,2.53
2022-11-25T03:53:41.372Z,2.70
2022-11-25T03:56:09.574Z,3.95
2022-11-25T03:58:37.388Z,2.47
2022-11-25T04:01:05.584Z,3.55
2022-11-25T04:03:33.514Z,5.13
2022-11-25T04:06:02.793Z,2.40
2022-11-25T04:08:30.730Z,2.17
2022-11-25T04:10:58.467Z,2.60
2022-11-25T04:13:25.263Z,2.80
2022-11-25T04:15:53.234Z,2.30
2022-11-25T04:18:21.017Z,2.83
2022-11-25T04:20:48.729Z,2.33
2022-11-25T04:23:17.745Z,2.42
2022-11-25T04:25:45.453Z,3.67
2022-11-25T04:28:13.169Z,6.55
2022-11-25T04:30:40.952Z,2.58
2022-11-25T04:33:08.705Z,6.65
2022-11-25T04:35:36.434Z,4.43
2022-11-25T04:38:04.142Z,4.40
2022-11-25T04:40:33.253Z,2.47
2022-11-25T04:43:06.107Z,2.50
2022-11-25T04:45:58.509Z,4.13
2022-11-25T04:48:24.772Z,4.30
2022-11-25T04:50:52.513Z,3.67
2022-11-25T04:53:20.168Z,5.40
2022-11-25T04:55:49.318Z,6.13
2022-11-25T04:58:37.726Z,4.22
2022-11-25T05:01:04.776Z,5.43
2022-11-25T05:03:32.497Z,2.42
2022-11-25T05:06:00.158Z,2.67
2022-11-25T05:08:27.812Z,3.67
2022-11-25T05:10:56.878Z,3.05
2022-11-25T05:13:24.592Z,2.53
2022-11-25T05:15:52.426Z,2.70
2022-11-25T05:18:20.117Z,3.78
2022-11-25T05:20:47.806Z,3.55
2022-11-25T05:23:15.448Z,1.88
2022-11-25T05:25:43.139Z,3.03
2022-11-25T05:28:12.215Z,2.67
2022-11-25T05:30:39.896Z,2.90
2022-11-25T05:33:07.652Z,2.67
2022-11-25T05:35:35.335Z,2.53
2022-11-25T05:38:04.266Z,3.20
2022-11-25T05:40:32.642Z,4.20
2022-11-25T05:43:01.778Z,6.32
2022-11-25T05:45:30.825Z,3.35
2022-11-25T05:47:58.464Z,5.18
2022-11-25T05:50:26.225Z,1.80
2022-11-25T05:52:53.933Z,2.08
2022-11-25T05:55:21.601Z,5.57
2022-11-25T05:57:49.328Z,2.22
2022-11-25T06:00:19.134Z,3.05
2022-11-25T06:02:52.612Z,2.70
2022-11-25T06:05:20.444Z,3.10
2022-11-25T06:07:48.301Z,2.75
2022-11-25T06:10:16.146Z,2.67
2022-11-25T06:12:43.940Z,1.88
2022-11-25T06:15:12.762Z,3.90
2022-11-25T06:17:40.392Z,1.70
2022-11-25T06:20:10.512Z,2.83
2022-11-25T06:22:38.503Z,2.20
2022-11-25T06:25:07.726Z,2.30
2022-11-25T06:28:04.646Z,2.00
2022-11-25T06:30:23.359Z,3.85
2022-11-25T06:32:51.146Z,2.25
2022-11-25T06:35:20.291Z,3.70
2022-11-25T06:37:48.127Z,2.38
2022-11-25T06:40:15.806Z,2.25
2022-11-25T06:42:43.633Z,2.42
2022-11-25T06:45:12.035Z,6.00
2022-11-25T06:47:39.698Z,2.67
2022-11-25T06:50:08.941Z,1.83
2022-11-25T06:52:38.454Z,3.80
2022-11-25T06:55:06.813Z,1.95
2022-11-25T06:57:34.683Z,3.50
2022-11-25T07:00:02.336Z,2.38
2022-11-25T07:02:33.323Z,4.18
2022-11-25T07:05:03.982Z,3.45
2022-11-25T07:07:31.725Z,2.85
2022-11-25T07:10:00.863Z,2.40
2022-11-25T07:12:28.540Z,3.15
2022-11-25T07:14:56.218Z,9.65
2022-11-25T07:17:23.942Z,7.60
2022-11-25T07:19:51.615Z,11.30
2022-11-25T07:22:19.382Z,10.65
2022-11-25T07:24:47.094Z,16.65
2022-11-25T07:27:16.177Z,16.65
2022-11-25T07:30:03.248Z,16.77
2022-11-25T07:32:34.630Z,17.88
2022-11-25T07:35:02.331Z,18.65
2022-11-25T07:37:30.819Z,16.25
2022-11-25T07:39:58.470Z,10.27
2022-11-25T07:42:27.729Z,6.30
2022-11-25T07:44:55.726Z,4.50
2022-11-25T07:47:25.373Z,2.47
2022-11-25T07:49:53.084Z,2.28
2022-11-25T07:52:20.934Z,2.10
2022-11-25T07:54:48.906Z,4.13
2022-11-25T07:57:16.567Z,2.30
2022-11-25T07:59:45.631Z,4.50
2022-11-25T08:02:13.505Z,4.80
2022-11-25T08:04:41.219Z,1.90
2022-11-25T08:07:08.935Z,3.08
2022-11-25T08:09:36.956Z,2.30
2022-11-25T08:12:04.896Z,5.18
2022-11-25T08:14:32.586Z,3.20
2022-11-25T08:17:03.226Z,4.70
2022-11-25T08:19:32.206Z,2.08
2022-11-25T08:21:59.977Z,2.92
2022-11-25T08:24:28.238Z,4.40
2022-11-25T08:26:58.690Z,1.75
2022-11-25T08:29:26.504Z,2.20
2022-11-25T08:31:54.345Z,3.35
2022-11-25T08:34:25.681Z,2.72
2022-11-25T08:36:53.867Z,3.40
2022-11-25T08:39:50.491Z,2.13
2022-11-25T08:42:10.552Z,2.58
2022-11-25T08:44:38.540Z,3.63
2022-11-25T08:47:06.492Z,2.85
2022-11-25T08:49:40.952Z,2.25
2022-11-25T08:52:10.401Z,3.50
2022-11-25T08:54:38.457Z,4.15
2022-11-25T08:57:06.337Z,3.13
2022-11-25T08:59:34.394Z,3.55
2022-11-25T09:02:02.686Z,3.00
2022-11-25T09:04:30.671Z,2.28
2022-11-25T09:07:00.826Z,5.35
2022-11-25T09:09:29.033Z,3.30
2022-11-25T09:11:57.177Z,3.13
2022-11-25T09:14:25.624Z,8.05
2022-11-25T09:16:53.749Z,16.75
2022-11-25T09:19:22.002Z,9.27
2022-11-25T09:21:50.470Z,6.40
2022-11-25T09:24:19.789Z,6.28
2022-11-25T09:26:49.348Z,6.28
2022-11-25T09:29:17.254Z,3.95
2022-11-25T09:31:47.005Z,5.80
2022-11-25T09:34:18.073Z,4.38
2022-11-25T09:36:46.381Z,3.92
2022-11-25T09:39:14.267Z,4.50
2022-11-25T09:42:18.720Z,4.30
2022-11-25T09:45:20.364Z,6.53
2022-11-25T09:47:58.137Z,6.63
2022-11-25T09:50:36.481Z,7.90
2022-11-25T09:53:18.304Z,4.18
2022-11-25T09:55:48.494Z,8.45
2022-11-25T09:58:27.152Z,4.95
2022-11-25T10:00:55.005Z,3.40
2022-11-25T10:03:33.693Z,4.97
2022-11-25T10:06:06.507Z,6.47
2022-11-25T10:08:39.472Z,3.83
2022-11-25T10:11:19.605Z,3.33
2022-11-25T10:13:55.289Z,3.47
2022-11-25T10:16:34.847Z,3.10
2022-11-25T10:19:13.159Z,1.88
2022-11-25T10:21:41.208Z,1.70
2022-11-25T10:24:14.493Z,2.17
2022-11-25T10:26:44.562Z,2.65
2022-11-25T10:29:25.033Z,9.20
2022-11-25T10:32:00.704Z,4.90
2022-11-25T10:34:36.515Z,3.53
2022-11-25T10:37:11.754Z,4.72
2022-11-25T10:39:39.718Z,3.63
2022-11-25T10:42:20.855Z,2.97
2022-11-25T10:44:50.009Z,2.53
2022-11-25T10:47:34.984Z,2.88
2022-11-25T10:50:16.359Z,2.03
2022-11-25T10:52:51.303Z,1.83
2022-11-25T10:55:21.765Z,2.40
2022-11-25T10:57:49.539Z,2.28
2022-11-25T11:00:29.708Z,2.50
2022-11-25T11:02:59.074Z,3.65
2022-11-25T11:05:29.596Z,2.58
2022-11-25T11:08:10.839Z,2.83
2022-11-25T11:10:39.490Z,2.25
2022-11-25T11:13:21.660Z,2.35
2022-11-25T11:15:51.411Z,2.00
2022-11-25T11:18:26.080Z,3.53
2022-11-25T11:20:55.578Z,3.50
2022-11-25T11:23:23.989Z,6.90
2022-11-25T11:26:00.905Z,3.10
2022-11-25T11:28:33.016Z,1.48
2022-11-25T11:31:06.392Z,7.70
2022-11-25T11:33:42.200Z,1.80
2022-11-25T11:36:26.101Z,4.97
2022-11-25T11:38:57.684Z,4.20
2022-11-25T11:41:37.957Z,1.30
2022-11-25T11:44:22.905Z,1.48
2022-11-25T11:47:20.388Z,2.35
2022-11-25T11:50:02.065Z,2.65
2022-11-25T11:52:41.894Z,2.67
2022-11-25T11:55:25.581Z,1.30
2022-11-25T11:58:04.331Z,2.45
2022-11-25T12:00:37.556Z,1.88
2022-11-25T12:03:15.443Z,1.73
2022-11-25T12:05:43.440Z,1.38
2022-11-25T12:08:14.923Z,2.10
2022-11-25T12:10:46.701Z,1.98
2022-11-25T12:13:20.249Z,2.28
2022-11-25T12:15:54.843Z,1.88
2022-11-25T12:18:36.082Z,2.20
2022-11-25T12:21:06.155Z,3.45
2022-11-25T12:23:49.532Z,1.85
2022-11-25T12:26:23.642Z,1.40
2022-11-25T12:28:56.294Z,1.95
2022-11-25T12:31:27.603Z,5.78
2022-11-25T12:34:03.676Z,2.92
2022-11-25T12:36:36.436Z,2.05
2022-11-25T12:39:06.660Z,1.88
2022-11-25T12:41:42.069Z,1.70
2022-11-25T12:44:16.095Z,1.35
2022-11-25T12:46:47.393Z,1.88
2022-11-25T12:49:21.528Z,3.60
2022-11-25T12:52:21.857Z,4.65
2022-11-25T12:55:06.951Z,3.42
2022-11-25T12:58:08.515Z,2.73
2022-11-25T13:01:07.053Z,2.28
2022-11-25T13:04:11.904Z,3.78
2022-11-25T13:06:54.741Z,4.03
2022-11-25T13:09:46.461Z,3.53
2022-11-25T13:12:24.777Z,1.90
2022-11-25T13:15:13.222Z,3.80
2022-11-25T13:17:44.418Z,5.07
2022-11-25T13:20:58.683Z,9.45
2022-11-25T13:23:45.967Z,3.05
2022-11-25T13:26:37.641Z,2.40
2022-11-25T13:30:00.008Z,1.80
2022-11-25T13:32:36.621Z,5.53
2022-11-25T13:35:32.098Z,4.60
2022-11-25T13:38:00.021Z,3.60
2022-11-25T13:40:41.719Z,5.45
2022-11-25T13:43:22.527Z,6.10
2022-11-25T13:45:50.545Z,5.68
2022-11-25T13:48:20.937Z,5.60
2022-11-25T13:51:10.492Z,2.70
2022-11-25T13:53:38.734Z,4.38
2022-11-25T13:56:28.532Z,3.28
2022-11-25T13:59:29.455Z,5.65
2022-11-25T14:02:31.620Z,5.47
2022-11-25T14:05:05.391Z,5.43
2022-11-25T14:07:42.617Z,4.82
2022-11-25T14:10:36.667Z,4.30
2022-11-25T14:13:27.696Z,7.13
2022-11-25T14:16:10.396Z,5.78
2022-11-25T14:21:55.885Z,4.60
2022-11-25T14:24:30.690Z,27.38
2022-11-25T14:27:00.116Z,4.10
2022-11-25T14:29:39.666Z,7.45
2022-11-25T14:32:11.886Z,42.42
2022-11-25T14:34:42.742Z,42.80
2022-11-25T14:37:15.666Z,20.50
2022-11-25T14:39:50.539Z,14.38
2022-11-25T14:42:22.232Z,16.95
2022-11-25T14:44:53.092Z,4.75
2022-11-25T14:47:24.225Z,6.03
2022-11-25T14:52:43.900Z,7.57
2022-11-25T14:55:12.895Z,10.93
2022-11-25T14:57:44.933Z,8.15
2022-11-25T15:00:17.748Z,9.65
2022-11-25T15:02:55.819Z,5.45
2022-11-25T15:05:27.317Z,6.18
2022-11-25T15:08:00.161Z,6.90
2022-11-25T15:10:39.037Z,12.05
2022-11-25T15:13:14.441Z,9.55
2022-11-25T15:15:46.312Z,7.32
2022-11-25T15:18:20.142Z,6.93
2022-11-25T15:20:51.368Z,8.68
2022-11-25T15:23:24.416Z,7.57
2022-11-25T15:25:53.523Z,9.23
2022-11-25T15:28:21.760Z,8.90
2022-11-25T15:31:12.700Z,15.70
2022-11-25T15:33:41.484Z,13.02
2022-11-25T15:36:09.550Z,10.05
2022-11-25T15:38:41.096Z,12.43
2022-11-25T15:41:20.127Z,7.82
2022-11-25T15:43:50.275Z,9.90
2022-11-25T15:46:19.704Z,7.88
2022-11-25T15:48:49.768Z,8.52
2022-11-25T15:51:32.465Z,13.25
2022-11-25T15:54:05.569Z,9.25
2022-11-25T15:56:36.998Z,9.55
2022-11-25T15:59:04.899Z,13.30
2022-11-25T16:01:34.378Z,9.15
2022-11-25T16:04:11.814Z,7.97
2022-11-25T16:06:54.650Z,8.98
2022-11-25T16:09:25.331Z,13.55
2022-11-25T16:11:53.080Z,8.88
2022-11-25T16:14:27.403Z,7.50
2022-11-25T16:17:04.057Z,13.77
2022-11-25T16:19:38.070Z,9.55
2022-11-25T16:22:06.667Z,9.52
2022-11-25T16:24:40.914Z,8.88
2022-11-25T16:27:18.403Z,10.90
2022-11-25T16:29:52.039Z,8.23
2022-11-25T16:32:23.536Z,13.30
2022-11-25T16:34:52.191Z,11.32
2022-11-25T16:37:20.061Z,13.95
2022-11-25T16:39:47.769Z,13.10
2022-11-25T16:42:21.763Z,14.73
2022-11-25T16:44:51.334Z,11.55
2022-11-25T16:47:22.456Z,8.35
2022-11-25T16:49:50.786Z,11.95
2022-11-25T16:52:18.774Z,11.10
2022-11-25T16:54:47.441Z,12.75
2022-11-25T16:57:19.291Z,10.88
2022-11-25T16:59:54.352Z,9.13
2022-11-25T17:02:26.568Z,12.52
2022-11-25T17:04:54.459Z,14.38
2022-11-25T17:07:38.366Z,10.82
2022-11-25T17:10:07.891Z,13.77
2022-11-25T17:12:36.634Z,16.13
2022-11-25T17:15:07.885Z,13.00
2022-11-25T17:17:37.236Z,10.23
2022-11-25T17:20:05.901Z,10.43
2022-11-25T17:22:39.077Z,10.75
2022-11-25T17:25:07.788Z,13.00
2022-11-25T17:27:35.855Z,9.45
2022-11-25T17:30:06.668Z,7.72
2022-11-25T17:32:35.410Z,13.52
2022-11-25T17:35:05.022Z,15.05
2022-11-25T17:37:33.065Z,10.98
2022-11-25T17:40:01.019Z,16.73
2022-11-25T17:42:31.428Z,17.73
2022-11-25T17:44:59.538Z,15.27
2022-11-25T17:47:27.398Z,10.88
2022-11-25T17:49:55.249Z,19.10
2022-11-25T17:52:24.646Z,16.50
2022-11-25T17:54:52.399Z,21.98
2022-11-25T17:57:23.397Z,21.83
2022-11-25T17:59:51.395Z,13.15
2022-11-25T18:02:20.915Z,15.63
2022-11-25T18:04:49.088Z,15.10
2022-11-25T18:07:18.772Z,12.80
2022-11-25T18:09:48.334Z,18.00
2022-11-25T18:12:19.705Z,17.02
2022-11-25T18:14:50.541Z,15.52
2022-11-25T18:17:19.776Z,25.13
2022-11-25T18:19:54.665Z,18.45
2022-11-25T18:22:23.842Z,16.38
2022-11-25T18:24:53.968Z,20.17
2022-11-25T18:27:24.773Z,13.85
2022-11-25T18:29:53.146Z,15.35
2022-11-25T18:32:22.663Z,13.52
2022-11-25T18:34:50.696Z,13.02
2022-11-25T18:37:18.664Z,13.65
2022-11-25T18:39:46.561Z,14.38
2022-11-25T18:42:25.192Z,16.83
2022-11-25T18:44:53.834Z,19.70
2022-11-25T18:47:21.512Z,16.73
2022-11-25T18:49:55.126Z,15.38
2022-11-25T18:52:23.467Z,13.93
2022-11-25T18:54:51.304Z,20.45
2022-11-25T18:57:20.593Z,20.50
2022-11-25T19:00:10.254Z,20.80
2022-11-25T19:02:36.414Z,19.23
2022-11-25T19:05:15.675Z,18.50
2022-11-25T19:07:43.866Z,21.70
2022-11-25T19:10:13.813Z,16.50
2022-11-25T19:12:46.569Z,17.20
2022-11-25T19:15:17.087Z,18.23
2022-11-25T19:17:47.854Z,16.08
2022-11-25T19:20:16.357Z,16.13
2022-11-25T19:22:44.212Z,19.42
2022-11-25T19:25:12.580Z,17.33
2022-11-25T19:27:44.868Z,18.75
2022-11-25T19:30:17.696Z,17.90
2022-11-25T19:32:47.167Z,21.25
2022-11-25T19:35:18.661Z,18.55
2022-11-25T19:37:46.811Z,20.60
2022-11-25T19:40:16.036Z,17.17
2022-11-25T19:42:48.384Z,19.52
2022-11-25T19:45:17.957Z,21.52
2022-11-25T19:47:47.041Z,19.55
2022-11-25T19:50:21.830Z,20.80
2022-11-25T19:52:50.119Z,18.92
2022-11-25T19:55:20.489Z,22.80
2022-11-25T19:57:50.379Z,23.90
2022-11-25T20:00:19.824Z,20.23
2022-11-25T20:02:49.876Z,16.42
2022-11-25T20:05:21.375Z,22.48
2022-11-25T20:07:49.287Z,19.92
2022-11-25T20:10:20.359Z,19.58
2022-11-25T20:12:50.058Z,21.45
2022-11-25T20:15:18.375Z,19.42
2022-11-25T20:17:49.097Z,22.60
2022-11-25T20:20:19.431Z,18.60
2022-11-25T20:22:57.004Z,19.55
2022-11-25T20:25:25.126Z,21.15
2022-11-25T20:27:54.233Z,15.55
2022-11-25T20:30:23.751Z,19.35
2022-11-25T20:32:51.799Z,16.73
2022-11-25T20:35:20.925Z,17.80
2022-11-25T20:37:53.949Z,19.23
2022-11-25T20:40:25.993Z,15.38
2022-11-25T20:42:56.000Z,20.08
2022-11-25T20:45:24.362Z,17.15
2022-11-25T20:47:53.056Z,17.45
2022-11-25T20:50:22.208Z,18.38
2022-11-25T20:52:51.021Z,18.23
2022-11-25T20:55:21.276Z,23.73
2022-11-25T20:57:49.911Z,21.20
2022-11-25T21:00:21.856Z,16.70
2022-11-25T21:02:49.825Z,20.00
2022-11-25T21:05:18.274Z,20.48
2022-11-25T21:07:47.704Z,19.42
2022-11-25T21:10:26.446Z,18.98
2022-11-25T21:12:54.842Z,15.13
2022-11-25T21:15:26.304Z,24.83
2022-11-25T21:17:54.575Z,18.35
2022-11-25T21:20:22.458Z,22.02
2022-11-25T21:22:55.398Z,17.15
2022-11-25T21:25:24.315Z,20.30
2022-11-25T21:27:53.031Z,23.48
2022-11-25T21:30:22.844Z,25.98
2022-11-25T21:32:54.660Z,21.23
2022-11-25T21:35:23.911Z,22.75
2022-11-25T21:37:51.740Z,20.88
2022-11-25T21:40:33.233Z,19.38
2022-11-25T21:43:02.207Z,20.20
2022-11-25T21:45:29.946Z,18.60
2022-11-25T21:48:00.171Z,20.35
2022-11-25T21:50:29.762Z,16.95
2022-11-25T21:52:57.737Z,22.77
2022-11-25T21:55:26.213Z,20.80
2022-11-25T21:57:53.912Z,22.35
2022-11-25T22:00:24.230Z,20.48
2022-11-25T22:02:52.332Z,23.67
2022-11-25T22:05:25.512Z,22.35
2022-11-25T22:07:54.902Z,18.75
2022-11-25T22:10:23.736Z,19.23
2022-11-25T22:12:51.500Z,21.52
2022-11-25T22:15:22.294Z,20.13
2022-11-25T22:17:53.229Z,19.63
2022-11-25T22:20:28.261Z,18.80
2022-11-25T22:22:57.110Z,23.65
2022-11-25T22:25:26.677Z,19.77
2022-11-25T22:27:54.521Z,19.80
2022-11-25T22:30:24.138Z,16.50
2022-11-25T22:33:00.011Z,20.52
2022-11-25T22:35:29.689Z,15.25
2022-11-25T22:37:57.428Z,18.52
2022-11-25T22:40:25.352Z,16.95
2022-11-25T22:42:56.303Z,25.02
2022-11-25T22:45:31.888Z,16.25
2022-11-25T22:50:31.701Z,21.50
2022-11-25T22:53:01.655Z,20.27
2022-11-25T22:55:31.066Z,19.77
2022-11-25T23:06:28.175Z,16.45
2022-11-25T23:08:55.966Z,25.92
2022-11-25T23:11:23.663Z,18.05
2022-11-25T23:13:51.351Z,20.42
2022-11-25T23:16:19.131Z,17.67
2022-11-25T23:18:48.548Z,20.30
2022-11-25T23:21:18.795Z,17.23
2022-11-25T23:23:46.929Z,17.55
2022-11-25T23:26:15.634Z,21.55
2022-11-25T23:28:43.614Z,20.88
2022-11-25T23:31:13.990Z,17.55
2022-11-25T23:33:44.727Z,17.52
2022-11-25T23:36:18.200Z,23.55
2022-11-25T23:38:50.063Z,17.10
2022-11-25T23:41:19.969Z,16.65
2022-11-25T23:43:47.754Z,13.05
2022-11-25T23:46:16.870Z,20.70
2022-11-25T23:48:49.386Z,18.77
2022-11-25T23:51:18.602Z,19.40
2022-11-25T23:53:46.514Z,18.58
2022-11-25T23:56:15.273Z,15.35
2022-11-25T23:58:43.088Z,16.23
